HAZ1087 ZSPD-ZPPP
Flight info
| Callsign | HAZ1087 |
|---|---|
| Flight time | 2h 49m |
| Altitude | 38100 |
| Route | NXD81D NXD W131 AKDIM A470 SAGNU W132 OREXA DCT P395 DCT AVDIP W226 IPMUG W611 BIVAV W138 DYG W140 HUY A581 QNX W136 XISLI XISLI1A |
| Aircraft | A339/H-SADE1E2E3GHIJ3J5M1P2RWXY/LB2D1 |
Departure
| Time | 2026-05-05 07:30 |
|---|---|
| Airport | Shanghai Pudong International Airport (ZSPD) |
Arrival
| Time | 2026-05-05 10:19 |
|---|---|
| Airport | Kunming Changshui International Airport (ZPPP) |
| Time | Latitude | Longitude | Altitude | Speed | Heading |
|---|---|---|---|---|---|
| 2026-05-05 07:08 | 31.14544 | 121.79877 | 29 ft | 0 kts | 71° |
| 2026-05-05 07:18 | 31.14543 | 121.79870 | 29 ft | 2 kts | 72° |
| 2026-05-05 07:18 | 31.14538 | 121.79853 | 29 ft | 2 kts | 71° |
| 2026-05-05 07:18 | 31.14533 | 121.79837 | 29 ft | 2 kts | 71° |
| 2026-05-05 07:18 | 31.14529 | 121.79822 | 29 ft | 0 kts | 71° |
| 2026-05-05 07:19 | 31.14525 | 121.79810 | 29 ft | 2 kts | 62° |
| 2026-05-05 07:19 | 31.14516 | 121.79796 | 30 ft | 2 kts | 42° |
| 2026-05-05 07:19 | 31.14504 | 121.79785 | 29 ft | 2 kts | 27° |
| 2026-05-05 07:19 | 31.14490 | 121.79779 | 30 ft | 2 kts | 10° |
| 2026-05-05 07:20 | 31.14475 | 121.79778 | 30 ft | 2 kts | 354° |
| 2026-05-05 07:20 | 31.14465 | 121.79780 | 29 ft | 0 kts | 342° |
| 2026-05-05 07:20 | 31.14461 | 121.79781 | 29 ft | 0 kts | 341° |
| 2026-05-05 07:20 | 31.14462 | 121.79781 | 29 ft | 0 kts | 341° |
| 2026-05-05 07:21 | 31.14463 | 121.79781 | 29 ft | 1 kts | 341° |
| 2026-05-05 07:22 | 31.14488 | 121.79771 | 29 ft | 5 kts | 341° |
| 2026-05-05 07:22 | 31.14539 | 121.79752 | 29 ft | 9 kts | 342° |
| 2026-05-05 07:22 | 31.14592 | 121.79700 | 29 ft | 11 kts | 277° |
| 2026-05-05 07:22 | 31.14574 | 121.79621 | 29 ft | 9 kts | 252° |
| 2026-05-05 07:23 | 31.14558 | 121.79545 | 29 ft | 8 kts | 278° |
| 2026-05-05 07:23 | 31.14605 | 121.79500 | 29 ft | 9 kts | 341° |
| 2026-05-05 07:23 | 31.14676 | 121.79473 | 29 ft | 11 kts | 342° |
| 2026-05-05 07:23 | 31.14756 | 121.79442 | 29 ft | 12 kts | 341° |
| 2026-05-05 07:24 | 31.14842 | 121.79409 | 29 ft | 13 kts | 342° |
| 2026-05-05 07:24 | 31.14937 | 121.79373 | 29 ft | 14 kts | 342° |
| 2026-05-05 07:24 | 31.15036 | 121.79336 | 29 ft | 15 kts | 342° |
| 2026-05-05 07:24 | 31.15142 | 121.79297 | 29 ft | 16 kts | 342° |
| 2026-05-05 07:25 | 31.15250 | 121.79256 | 29 ft | 16 kts | 342° |
| 2026-05-05 07:25 | 31.15363 | 121.79213 | 29 ft | 17 kts | 342° |
| 2026-05-05 07:25 | 31.15479 | 121.79170 | 29 ft | 17 kts | 342° |
| 2026-05-05 07:25 | 31.15598 | 121.79125 | 29 ft | 18 kts | 342° |
| 2026-05-05 07:26 | 31.15636 | 121.79072 | 29 ft | 7 kts | 256° |
| 2026-05-05 07:26 | 31.15631 | 121.79012 | 29 ft | 7 kts | 297° |
| 2026-05-05 07:26 | 31.15682 | 121.78982 | 29 ft | 8 kts | 341° |
| 2026-05-05 07:26 | 31.15745 | 121.78957 | 29 ft | 10 kts | 342° |
| 2026-05-05 07:27 | 31.15819 | 121.78929 | 29 ft | 11 kts | 342° |
| 2026-05-05 07:27 | 31.15903 | 121.78897 | 29 ft | 13 kts | 342° |
| 2026-05-05 07:27 | 31.15995 | 121.78863 | 29 ft | 14 kts | 342° |
| 2026-05-05 07:27 | 31.16093 | 121.78828 | 29 ft | 15 kts | 342° |
| 2026-05-05 07:28 | 31.16150 | 121.78778 | 29 ft | 9 kts | 271° |
| 2026-05-05 07:28 | 31.16144 | 121.78726 | 29 ft | 0 kts | 254° |
| 2026-05-05 07:28 | 31.16141 | 121.78711 | 29 ft | 2 kts | 254° |
| 2026-05-05 07:28 | 31.16133 | 121.78679 | 29 ft | 5 kts | 253° |
| 2026-05-05 07:29 | 31.16114 | 121.78635 | 29 ft | 7 kts | 232° |
| 2026-05-05 07:29 | 31.16065 | 121.78619 | 29 ft | 9 kts | 165° |
| 2026-05-05 07:29 | 31.15918 | 121.78675 | 29 ft | 55 kts | 162° |
| 2026-05-05 07:29 | 31.15299 | 121.78911 | 30 ft | 129 kts | 161° |
| 2026-05-05 07:30 | 31.14232 | 121.79316 | 78 ft | 184 kts | 161° |
| 2026-05-05 07:30 | 31.11945 | 121.80200 | 2012 ft | 169 kts | 166° |
| 2026-05-05 07:30 | 31.10781 | 121.80554 | 2663 ft | 182 kts | 166° |
| 2026-05-05 07:31 | 31.09512 | 121.80940 | 3227 ft | 201 kts | 166° |
| 2026-05-05 07:31 | 31.08106 | 121.81381 | 3760 ft | 218 kts | 165° |
| 2026-05-05 07:31 | 31.06571 | 121.81870 | 4266 ft | 235 kts | 165° |
| 2026-05-05 07:31 | 31.04924 | 121.82402 | 4700 ft | 253 kts | 165° |
| 2026-05-05 07:32 | 31.03191 | 121.82961 | 5208 ft | 267 kts | 166° |
| 2026-05-05 07:32 | 31.01316 | 121.83127 | 5703 ft | 271 kts | 191° |
| 2026-05-05 07:32 | 30.99605 | 121.82258 | 5891 ft | 274 kts | 219° |
| 2026-05-05 07:32 | 30.98440 | 121.80505 | 5897 ft | 275 kts | 247° |
| 2026-05-05 07:33 | 30.97847 | 121.78391 | 5903 ft | 275 kts | 252° |
| 2026-05-05 07:33 | 30.97290 | 121.76235 | 5853 ft | 275 kts | 252° |
| 2026-05-05 07:33 | 30.96726 | 121.74100 | 5901 ft | 275 kts | 252° |
| 2026-05-05 07:33 | 30.96341 | 121.71941 | 5903 ft | 276 kts | 266° |
| 2026-05-05 07:34 | 30.96501 | 121.69688 | 6007 ft | 282 kts | 281° |
| 2026-05-05 07:34 | 30.96915 | 121.67461 | 6674 ft | 285 kts | 283° |
| 2026-05-05 07:34 | 30.97352 | 121.65225 | 7571 ft | 282 kts | 283° |
| 2026-05-05 07:34 | 30.97780 | 121.63012 | 8392 ft | 281 kts | 283° |
| 2026-05-05 07:35 | 30.98197 | 121.60812 | 9149 ft | 283 kts | 283° |
| 2026-05-05 07:35 | 30.98613 | 121.58586 | 9870 ft | 285 kts | 282° |
| 2026-05-05 07:35 | 30.99033 | 121.56316 | 10545 ft | 290 kts | 282° |
| 2026-05-05 07:35 | 30.99470 | 121.53953 | 10885 ft | 307 kts | 282° |
| 2026-05-05 07:36 | 30.99929 | 121.51454 | 11202 ft | 325 kts | 282° |
| 2026-05-05 07:36 | 31.00415 | 121.48816 | 11491 ft | 340 kts | 282° |
| 2026-05-05 07:36 | 31.00907 | 121.46134 | 12172 ft | 344 kts | 283° |
| 2026-05-05 07:36 | 31.01413 | 121.43400 | 13003 ft | 346 kts | 283° |
| 2026-05-05 07:37 | 31.01924 | 121.40632 | 13753 ft | 349 kts | 283° |
| 2026-05-05 07:37 | 31.02430 | 121.37884 | 14417 ft | 352 kts | 283° |
| 2026-05-05 07:37 | 31.02947 | 121.35077 | 15104 ft | 354 kts | 282° |
| 2026-05-05 07:37 | 31.03461 | 121.32269 | 15815 ft | 357 kts | 282° |
| 2026-05-05 07:38 | 31.03979 | 121.29436 | 16530 ft | 360 kts | 282° |
| 2026-05-05 07:38 | 31.04497 | 121.26592 | 17206 ft | 364 kts | 282° |
| 2026-05-05 07:38 | 31.05019 | 121.23725 | 17855 ft | 367 kts | 281° |
| 2026-05-05 07:38 | 31.05550 | 121.20807 | 18541 ft | 370 kts | 281° |
| 2026-05-05 07:39 | 31.06092 | 121.17831 | 19249 ft | 374 kts | 281° |
| 2026-05-05 07:39 | 31.06543 | 121.14883 | 19866 ft | 377 kts | 275° |
| 2026-05-05 07:39 | 31.06558 | 121.11822 | 20498 ft | 381 kts | 265° |
| 2026-05-05 07:39 | 31.06113 | 121.08777 | 21092 ft | 384 kts | 256° |
| 2026-05-05 07:40 | 31.05393 | 121.05761 | 21691 ft | 388 kts | 255° |
| 2026-05-05 07:40 | 31.04638 | 121.02737 | 22252 ft | 391 kts | 254° |
| 2026-05-05 07:40 | 31.03864 | 120.99650 | 22814 ft | 395 kts | 254° |
| 2026-05-05 07:40 | 31.03102 | 120.96605 | 23348 ft | 398 kts | 254° |
| 2026-05-05 07:41 | 31.02322 | 120.93484 | 23864 ft | 401 kts | 254° |
| 2026-05-05 07:41 | 31.01545 | 120.90365 | 24403 ft | 402 kts | 254° |
| 2026-05-05 07:41 | 31.00764 | 120.87226 | 24938 ft | 403 kts | 254° |
| 2026-05-05 07:41 | 30.99983 | 120.84094 | 25442 ft | 405 kts | 254° |
| 2026-05-05 07:42 | 30.99203 | 120.80964 | 25937 ft | 405 kts | 254° |
| 2026-05-05 07:42 | 30.98420 | 120.77826 | 26410 ft | 407 kts | 254° |
| 2026-05-05 07:42 | 30.97632 | 120.74670 | 26869 ft | 408 kts | 254° |
| 2026-05-05 07:42 | 30.96831 | 120.71467 | 27301 ft | 409 kts | 254° |
| 2026-05-05 07:43 | 30.96038 | 120.68299 | 27715 ft | 411 kts | 254° |
| 2026-05-05 07:43 | 30.95239 | 120.65112 | 28157 ft | 412 kts | 254° |
| 2026-05-05 07:43 | 30.94440 | 120.61930 | 28557 ft | 413 kts | 254° |
| 2026-05-05 07:43 | 30.93634 | 120.58722 | 28943 ft | 414 kts | 254° |
| 2026-05-05 07:44 | 30.92826 | 120.55508 | 29323 ft | 416 kts | 254° |
| 2026-05-05 07:44 | 30.92007 | 120.52261 | 29687 ft | 417 kts | 253° |
| 2026-05-05 07:44 | 30.91019 | 120.49103 | 29990 ft | 419 kts | 247° |
| 2026-05-05 07:44 | 30.89690 | 120.46097 | 30302 ft | 422 kts | 241° |
| 2026-05-05 07:45 | 30.88019 | 120.43232 | 30617 ft | 425 kts | 234° |
| 2026-05-05 07:45 | 30.86068 | 120.40632 | 30901 ft | 429 kts | 228° |
| 2026-05-05 07:45 | 30.83864 | 120.38336 | 31287 ft | 430 kts | 222° |
| 2026-05-05 07:45 | 30.81433 | 120.36254 | 31728 ft | 429 kts | 220° |
| 2026-05-05 07:46 | 30.79041 | 120.34267 | 32157 ft | 426 kts | 219° |
| 2026-05-05 07:46 | 30.76634 | 120.32280 | 32566 ft | 424 kts | 219° |
| 2026-05-05 07:46 | 30.74207 | 120.30283 | 32918 ft | 424 kts | 219° |
| 2026-05-05 07:46 | 30.71805 | 120.28307 | 33298 ft | 423 kts | 219° |
| 2026-05-05 07:47 | 30.69405 | 120.26335 | 33717 ft | 421 kts | 219° |
| 2026-05-05 07:47 | 30.67020 | 120.24379 | 34123 ft | 419 kts | 219° |
| 2026-05-05 07:47 | 30.64673 | 120.22455 | 34508 ft | 417 kts | 220° |
| 2026-05-05 07:47 | 30.62300 | 120.20507 | 34878 ft | 416 kts | 220° |
| 2026-05-05 07:48 | 30.59930 | 120.18565 | 35209 ft | 415 kts | 220° |
| 2026-05-05 07:48 | 30.57599 | 120.16656 | 35545 ft | 414 kts | 220° |
| 2026-05-05 07:48 | 30.55235 | 120.14722 | 35884 ft | 412 kts | 220° |
| 2026-05-05 07:48 | 30.52894 | 120.12804 | 36200 ft | 411 kts | 220° |
| 2026-05-05 07:49 | 30.50568 | 120.10904 | 36431 ft | 412 kts | 220° |
| 2026-05-05 07:49 | 30.48220 | 120.08984 | 36640 ft | 414 kts | 220° |
| 2026-05-05 07:49 | 30.45855 | 120.07053 | 36872 ft | 414 kts | 220° |
| 2026-05-05 07:49 | 30.43469 | 120.05208 | 37053 ft | 418 kts | 218° |
| 2026-05-05 07:50 | 30.40981 | 120.03480 | 37248 ft | 421 kts | 216° |
| 2026-05-05 07:50 | 30.38448 | 120.01789 | 37453 ft | 421 kts | 216° |
| 2026-05-05 07:50 | 30.35886 | 120.00075 | 37660 ft | 422 kts | 216° |
| 2026-05-05 07:50 | 30.33350 | 119.98380 | 37897 ft | 422 kts | 216° |
| 2026-05-05 07:51 | 30.30815 | 119.96690 | 38040 ft | 424 kts | 216° |
| 2026-05-05 07:51 | 30.28248 | 119.94977 | 38041 ft | 425 kts | 216° |
| 2026-05-05 07:51 | 30.23152 | 119.91590 | 38047 ft | 424 kts | 216° |
| 2026-05-05 07:52 | 30.18039 | 119.88193 | 38050 ft | 423 kts | 216° |
| 2026-05-05 07:52 | 30.12952 | 119.84782 | 38055 ft | 422 kts | 218° |
| 2026-05-05 07:53 | 30.08170 | 119.80949 | 38055 ft | 417 kts | 224° |
| 2026-05-05 07:53 | 30.03823 | 119.76579 | 38057 ft | 413 kts | 230° |
| 2026-05-05 07:54 | 30.00062 | 119.71611 | 38057 ft | 409 kts | 237° |
| 2026-05-05 07:54 | 29.96739 | 119.66285 | 38070 ft | 408 kts | 238° |
| 2026-05-05 07:55 | 29.93468 | 119.60989 | 38087 ft | 408 kts | 238° |
| 2026-05-05 07:55 | 29.90177 | 119.55653 | 38092 ft | 408 kts | 238° |
| 2026-05-05 07:56 | 29.86896 | 119.50336 | 38097 ft | 408 kts | 238° |
| 2026-05-05 07:56 | 29.83592 | 119.44983 | 38101 ft | 408 kts | 238° |
| 2026-05-05 07:57 | 29.80296 | 119.39646 | 38102 ft | 408 kts | 238° |
| 2026-05-05 07:57 | 29.77008 | 119.34338 | 38107 ft | 409 kts | 238° |
| 2026-05-05 07:58 | 29.73713 | 119.29018 | 38106 ft | 410 kts | 238° |
| 2026-05-05 07:58 | 29.70417 | 119.23705 | 38109 ft | 409 kts | 238° |
| 2026-05-05 07:59 | 29.67301 | 119.18216 | 38104 ft | 407 kts | 242° |
| 2026-05-05 07:59 | 29.64657 | 119.12483 | 38101 ft | 406 kts | 246° |
| 2026-05-05 08:00 | 29.62477 | 119.06517 | 38101 ft | 406 kts | 250° |
| 2026-05-05 08:00 | 29.60446 | 119.00458 | 38102 ft | 406 kts | 250° |
| 2026-05-05 08:01 | 29.58426 | 118.94421 | 38095 ft | 406 kts | 250° |
| 2026-05-05 08:01 | 29.56404 | 118.88384 | 38084 ft | 407 kts | 250° |
| 2026-05-05 08:02 | 29.54378 | 118.82328 | 38075 ft | 407 kts | 250° |
| 2026-05-05 08:02 | 29.52342 | 118.76251 | 38063 ft | 407 kts | 251° |
| 2026-05-05 08:03 | 29.50318 | 118.70213 | 38061 ft | 408 kts | 250° |
| 2026-05-05 08:03 | 29.48282 | 118.64160 | 38074 ft | 408 kts | 250° |
| 2026-05-05 08:04 | 29.46233 | 118.58074 | 38090 ft | 408 kts | 250° |
| 2026-05-05 08:04 | 29.44182 | 118.51997 | 38097 ft | 409 kts | 251° |
| 2026-05-05 08:05 | 29.42142 | 118.45959 | 38109 ft | 409 kts | 251° |
| 2026-05-05 08:05 | 29.40082 | 118.39872 | 38108 ft | 410 kts | 251° |
| 2026-05-05 08:06 | 29.38019 | 118.33787 | 38115 ft | 410 kts | 250° |
| 2026-05-05 08:06 | 29.35948 | 118.27687 | 38121 ft | 410 kts | 250° |
| 2026-05-05 08:07 | 29.33880 | 118.21611 | 38117 ft | 411 kts | 250° |
| 2026-05-05 08:07 | 29.31807 | 118.15530 | 38114 ft | 414 kts | 251° |
| 2026-05-05 08:08 | 29.29691 | 118.09322 | 38103 ft | 424 kts | 250° |
| 2026-05-05 08:08 | 29.27513 | 118.02959 | 38090 ft | 431 kts | 251° |
| 2026-05-05 08:09 | 29.25328 | 117.96582 | 38080 ft | 433 kts | 251° |
| 2026-05-05 08:09 | 29.23123 | 117.90156 | 38071 ft | 433 kts | 250° |
| 2026-05-05 08:10 | 29.20915 | 117.83740 | 38065 ft | 433 kts | 251° |
| 2026-05-05 08:10 | 29.18723 | 117.77380 | 38056 ft | 433 kts | 251° |
| 2026-05-05 08:11 | 29.16512 | 117.70978 | 38057 ft | 433 kts | 251° |
| 2026-05-05 08:11 | 29.14285 | 117.64533 | 38053 ft | 434 kts | 251° |
| 2026-05-05 08:12 | 29.12073 | 117.58152 | 38049 ft | 434 kts | 251° |
| 2026-05-05 08:12 | 29.09839 | 117.51714 | 38043 ft | 434 kts | 251° |
| 2026-05-05 08:13 | 29.07617 | 117.45320 | 38040 ft | 434 kts | 251° |
| 2026-05-05 08:13 | 29.05392 | 117.38939 | 38032 ft | 434 kts | 251° |
| 2026-05-05 08:14 | 29.03153 | 117.32524 | 38023 ft | 435 kts | 250° |
| 2026-05-05 08:14 | 29.00965 | 117.26131 | 38043 ft | 435 kts | 252° |
| 2026-05-05 08:15 | 28.98917 | 117.19614 | 38014 ft | 435 kts | 252° |
| 2026-05-05 08:15 | 28.96870 | 117.13123 | 38019 ft | 435 kts | 252° |
| 2026-05-05 08:16 | 28.94819 | 117.06629 | 38018 ft | 436 kts | 252° |
| 2026-05-05 08:16 | 28.92762 | 117.00123 | 38021 ft | 436 kts | 252° |
| 2026-05-05 08:17 | 28.90705 | 116.93638 | 38020 ft | 436 kts | 252° |
| 2026-05-05 08:17 | 28.88639 | 116.87128 | 38016 ft | 436 kts | 252° |
| 2026-05-05 08:18 | 28.86568 | 116.80620 | 38016 ft | 438 kts | 253° |
| 2026-05-05 08:18 | 28.84509 | 116.74152 | 38014 ft | 437 kts | 252° |
| 2026-05-05 08:19 | 28.82429 | 116.67643 | 38012 ft | 438 kts | 252° |
| 2026-05-05 08:19 | 28.80340 | 116.61114 | 38011 ft | 438 kts | 253° |
| 2026-05-05 08:20 | 28.78249 | 116.54588 | 38017 ft | 438 kts | 253° |
| 2026-05-05 08:20 | 28.76170 | 116.48113 | 38017 ft | 439 kts | 253° |
| 2026-05-05 08:21 | 28.74066 | 116.41569 | 38012 ft | 439 kts | 253° |
| 2026-05-05 08:21 | 28.71967 | 116.35062 | 38010 ft | 439 kts | 253° |
| 2026-05-05 08:22 | 28.69860 | 116.28539 | 38006 ft | 440 kts | 253° |
| 2026-05-05 08:22 | 28.67749 | 116.22011 | 38006 ft | 440 kts | 253° |
| 2026-05-05 08:23 | 28.65637 | 116.15501 | 38001 ft | 440 kts | 252° |
| 2026-05-05 08:23 | 28.63515 | 116.08965 | 38004 ft | 441 kts | 253° |
| 2026-05-05 08:24 | 28.61388 | 116.02428 | 38003 ft | 441 kts | 253° |
| 2026-05-05 08:24 | 28.59267 | 115.95924 | 38001 ft | 441 kts | 253° |
| 2026-05-05 08:25 | 28.57133 | 115.89389 | 38006 ft | 442 kts | 253° |
| 2026-05-05 08:25 | 28.54989 | 115.82838 | 38008 ft | 442 kts | 253° |
| 2026-05-05 08:26 | 28.52840 | 115.76294 | 38008 ft | 443 kts | 253° |
| 2026-05-05 08:26 | 28.50704 | 115.69760 | 38008 ft | 442 kts | 254° |
| 2026-05-05 08:27 | 28.48919 | 115.63087 | 38006 ft | 441 kts | 259° |
| 2026-05-05 08:27 | 28.47673 | 115.56300 | 38007 ft | 440 kts | 263° |
| 2026-05-05 08:28 | 28.46707 | 115.49455 | 38006 ft | 440 kts | 263° |
| 2026-05-05 08:28 | 28.45744 | 115.42595 | 38005 ft | 440 kts | 263° |
| 2026-05-05 08:29 | 28.44787 | 115.35710 | 38008 ft | 440 kts | 263° |
| 2026-05-05 08:30 | 28.43334 | 115.25372 | 38012 ft | 441 kts | 263° |
| 2026-05-05 08:30 | 28.42367 | 115.18529 | 38015 ft | 441 kts | 263° |
| 2026-05-05 08:31 | 28.41391 | 115.11651 | 38019 ft | 442 kts | 263° |
| 2026-05-05 08:31 | 28.40412 | 115.04791 | 38020 ft | 442 kts | 263° |
| 2026-05-05 08:32 | 28.39424 | 114.97875 | 38026 ft | 443 kts | 263° |
| 2026-05-05 08:32 | 28.38439 | 114.91013 | 38026 ft | 443 kts | 263° |
| 2026-05-05 08:33 | 28.37443 | 114.84111 | 38020 ft | 442 kts | 263° |
| 2026-05-05 08:33 | 28.36442 | 114.77196 | 38024 ft | 443 kts | 263° |
| 2026-05-05 08:34 | 28.35439 | 114.70281 | 38025 ft | 443 kts | 264° |
| 2026-05-05 08:34 | 28.34433 | 114.63384 | 38031 ft | 443 kts | 264° |
| 2026-05-05 08:35 | 28.33430 | 114.56529 | 38035 ft | 443 kts | 264° |
| 2026-05-05 08:35 | 28.32417 | 114.49635 | 38040 ft | 442 kts | 263° |
| 2026-05-05 08:36 | 28.31401 | 114.42767 | 38040 ft | 443 kts | 264° |
| 2026-05-05 08:36 | 28.30435 | 114.35878 | 38050 ft | 442 kts | 265° |
| 2026-05-05 08:37 | 28.29638 | 114.28968 | 38057 ft | 442 kts | 265° |
| 2026-05-05 08:37 | 28.28838 | 114.22070 | 38058 ft | 442 kts | 265° |
| 2026-05-05 08:38 | 28.28036 | 114.15182 | 38052 ft | 442 kts | 265° |
| 2026-05-05 08:38 | 28.27232 | 114.08292 | 38046 ft | 442 kts | 265° |
| 2026-05-05 08:39 | 28.26419 | 114.01379 | 38040 ft | 442 kts | 265° |
| 2026-05-05 08:39 | 28.25611 | 113.94528 | 38035 ft | 442 kts | 265° |
| 2026-05-05 08:40 | 28.24792 | 113.87631 | 38031 ft | 441 kts | 266° |
| 2026-05-05 08:40 | 28.23973 | 113.80764 | 38011 ft | 442 kts | 266° |
| 2026-05-05 08:41 | 28.23146 | 113.73863 | 38012 ft | 442 kts | 266° |
| 2026-05-05 08:41 | 28.22316 | 113.66956 | 38016 ft | 442 kts | 266° |
| 2026-05-05 08:42 | 28.21485 | 113.60113 | 38009 ft | 442 kts | 266° |
| 2026-05-05 08:42 | 28.20641 | 113.53208 | 38021 ft | 441 kts | 266° |
| 2026-05-05 08:43 | 28.19803 | 113.46368 | 38017 ft | 441 kts | 266° |
| 2026-05-05 08:43 | 28.18965 | 113.39494 | 38010 ft | 441 kts | 266° |
| 2026-05-05 08:44 | 28.18124 | 113.32618 | 38009 ft | 441 kts | 266° |
| 2026-05-05 08:44 | 28.17277 | 113.25746 | 38009 ft | 441 kts | 266° |
| 2026-05-05 08:45 | 28.16429 | 113.18880 | 38002 ft | 441 kts | 266° |
| 2026-05-05 08:45 | 28.15574 | 113.12013 | 38001 ft | 441 kts | 266° |
| 2026-05-05 08:46 | 28.14722 | 113.05194 | 37997 ft | 440 kts | 266° |
| 2026-05-05 08:46 | 28.14025 | 112.98342 | 37999 ft | 438 kts | 270° |
| 2026-05-05 08:47 | 28.13859 | 112.91501 | 37989 ft | 435 kts | 275° |
| 2026-05-05 08:47 | 28.14167 | 112.84686 | 37985 ft | 434 kts | 277° |
| 2026-05-05 08:48 | 28.14554 | 112.77849 | 37985 ft | 434 kts | 277° |
| 2026-05-05 08:48 | 28.14939 | 112.71056 | 37977 ft | 434 kts | 277° |
| 2026-05-05 08:49 | 28.15328 | 112.64254 | 37979 ft | 433 kts | 277° |
| 2026-05-05 08:49 | 28.15709 | 112.57456 | 37981 ft | 434 kts | 277° |
| 2026-05-05 08:50 | 28.16093 | 112.50647 | 37977 ft | 433 kts | 277° |
| 2026-05-05 08:50 | 28.16466 | 112.43890 | 37975 ft | 433 kts | 277° |
| 2026-05-05 08:51 | 28.16838 | 112.37078 | 37978 ft | 433 kts | 277° |
| 2026-05-05 08:51 | 28.17209 | 112.30267 | 37977 ft | 433 kts | 277° |
| 2026-05-05 08:52 | 28.17585 | 112.23469 | 37975 ft | 433 kts | 278° |
| 2026-05-05 08:52 | 28.18298 | 112.16679 | 37980 ft | 431 kts | 281° |
| 2026-05-05 08:53 | 28.19097 | 112.09944 | 37983 ft | 431 kts | 281° |
| 2026-05-05 08:53 | 28.20261 | 112.03304 | 37995 ft | 428 kts | 287° |
| 2026-05-05 08:54 | 28.22051 | 111.96922 | 37998 ft | 427 kts | 292° |
| 2026-05-05 08:54 | 28.24472 | 111.90768 | 38001 ft | 426 kts | 298° |
| 2026-05-05 08:55 | 28.27477 | 111.84952 | 38005 ft | 426 kts | 302° |
| 2026-05-05 08:55 | 28.30671 | 111.79308 | 37993 ft | 425 kts | 302° |
| 2026-05-05 08:56 | 28.33884 | 111.73671 | 37997 ft | 425 kts | 303° |
| 2026-05-05 08:56 | 28.37106 | 111.68027 | 37990 ft | 426 kts | 303° |
| 2026-05-05 08:57 | 28.40327 | 111.62376 | 37992 ft | 425 kts | 303° |
| 2026-05-05 08:57 | 28.43523 | 111.56772 | 37991 ft | 426 kts | 303° |
| 2026-05-05 08:58 | 28.46731 | 111.51149 | 37988 ft | 425 kts | 303° |
| 2026-05-05 08:58 | 28.49954 | 111.45482 | 37998 ft | 425 kts | 303° |
| 2026-05-05 08:59 | 28.53141 | 111.39866 | 37983 ft | 425 kts | 303° |
| 2026-05-05 08:59 | 28.56374 | 111.34158 | 37995 ft | 424 kts | 303° |
| 2026-05-05 09:00 | 28.59550 | 111.28532 | 37993 ft | 425 kts | 303° |
| 2026-05-05 09:00 | 28.62740 | 111.22880 | 37991 ft | 424 kts | 303° |
| 2026-05-05 09:01 | 28.65917 | 111.17242 | 37992 ft | 423 kts | 303° |
| 2026-05-05 09:01 | 28.69114 | 111.11648 | 38007 ft | 424 kts | 304° |
| 2026-05-05 09:02 | 28.72349 | 111.05994 | 37993 ft | 423 kts | 303° |
| 2026-05-05 09:02 | 28.75528 | 111.00420 | 38001 ft | 423 kts | 303° |
| 2026-05-05 09:03 | 28.78735 | 110.94781 | 37994 ft | 422 kts | 304° |
| 2026-05-05 09:03 | 28.81917 | 110.89178 | 38006 ft | 423 kts | 303° |
| 2026-05-05 09:04 | 28.85107 | 110.83551 | 37999 ft | 422 kts | 303° |
| 2026-05-05 09:04 | 28.88286 | 110.77937 | 37996 ft | 421 kts | 304° |
| 2026-05-05 09:05 | 28.91462 | 110.72318 | 38001 ft | 422 kts | 304° |
| 2026-05-05 09:05 | 28.94629 | 110.66703 | 38006 ft | 421 kts | 303° |
| 2026-05-05 09:06 | 28.97796 | 110.61079 | 38012 ft | 421 kts | 304° |
| 2026-05-05 09:06 | 29.00952 | 110.55468 | 38020 ft | 420 kts | 304° |
| 2026-05-05 09:07 | 29.03970 | 110.49733 | 38031 ft | 422 kts | 297° |
| 2026-05-05 09:07 | 29.05583 | 110.43294 | 38028 ft | 430 kts | 282° |
| 2026-05-05 09:08 | 29.05462 | 110.36388 | 38038 ft | 443 kts | 266° |
| 2026-05-05 09:08 | 29.03457 | 110.29668 | 38040 ft | 461 kts | 250° |
| 2026-05-05 09:09 | 29.00180 | 110.23324 | 38047 ft | 465 kts | 247° |
| 2026-05-05 09:09 | 28.96810 | 110.17013 | 38046 ft | 465 kts | 247° |
| 2026-05-05 09:10 | 28.93437 | 110.10712 | 38040 ft | 464 kts | 247° |
| 2026-05-05 09:10 | 28.90090 | 110.04464 | 38045 ft | 464 kts | 247° |
| 2026-05-05 09:11 | 28.86720 | 109.98178 | 38042 ft | 463 kts | 247° |
| 2026-05-05 09:11 | 28.83357 | 109.91915 | 38038 ft | 463 kts | 247° |
| 2026-05-05 09:12 | 28.79987 | 109.85647 | 38023 ft | 463 kts | 247° |
| 2026-05-05 09:12 | 28.76611 | 109.79378 | 38015 ft | 463 kts | 247° |
| 2026-05-05 09:13 | 28.73233 | 109.73116 | 38014 ft | 463 kts | 247° |
| 2026-05-05 09:13 | 28.69870 | 109.66889 | 37996 ft | 463 kts | 247° |
| 2026-05-05 09:14 | 28.66509 | 109.60678 | 37994 ft | 463 kts | 247° |
| 2026-05-05 09:14 | 28.63117 | 109.54421 | 38007 ft | 462 kts | 247° |
| 2026-05-05 09:15 | 28.59739 | 109.48198 | 38017 ft | 463 kts | 247° |
| 2026-05-05 09:15 | 28.56643 | 109.41876 | 38016 ft | 456 kts | 251° |
| 2026-05-05 09:16 | 28.53818 | 109.35449 | 38010 ft | 457 kts | 251° |
| 2026-05-05 09:16 | 28.50967 | 109.28966 | 38014 ft | 457 kts | 251° |
| 2026-05-05 09:17 | 28.48120 | 109.22503 | 38007 ft | 457 kts | 251° |
| 2026-05-05 09:17 | 28.45298 | 109.16103 | 38007 ft | 456 kts | 251° |
| 2026-05-05 09:18 | 28.42447 | 109.09656 | 38021 ft | 456 kts | 251° |
| 2026-05-05 09:18 | 28.39600 | 109.03238 | 38029 ft | 456 kts | 251° |
| 2026-05-05 09:19 | 28.36763 | 108.96851 | 38027 ft | 455 kts | 251° |
| 2026-05-05 09:19 | 28.33901 | 108.90420 | 38046 ft | 455 kts | 251° |
| 2026-05-05 09:20 | 28.31044 | 108.84010 | 38038 ft | 454 kts | 251° |
| 2026-05-05 09:20 | 28.28198 | 108.77640 | 38064 ft | 454 kts | 251° |
| 2026-05-05 09:21 | 28.25356 | 108.71281 | 38068 ft | 453 kts | 251° |
| 2026-05-05 09:21 | 28.22515 | 108.64935 | 38059 ft | 453 kts | 251° |
| 2026-05-05 09:22 | 28.19657 | 108.58568 | 38049 ft | 453 kts | 251° |
| 2026-05-05 09:22 | 28.16800 | 108.52211 | 38042 ft | 453 kts | 251° |
| 2026-05-05 09:23 | 28.13954 | 108.45882 | 38029 ft | 453 kts | 251° |
| 2026-05-05 09:23 | 28.11102 | 108.39558 | 38023 ft | 451 kts | 251° |
| 2026-05-05 09:24 | 28.08234 | 108.33202 | 38028 ft | 451 kts | 251° |
| 2026-05-05 09:24 | 28.05384 | 108.26899 | 38022 ft | 452 kts | 250° |
| 2026-05-05 09:25 | 28.02517 | 108.20567 | 38025 ft | 450 kts | 250° |
| 2026-05-05 09:25 | 27.99653 | 108.14256 | 38023 ft | 452 kts | 251° |
| 2026-05-05 09:26 | 27.96793 | 108.07956 | 38024 ft | 452 kts | 250° |
| 2026-05-05 09:26 | 27.93918 | 108.01630 | 38026 ft | 451 kts | 250° |
| 2026-05-05 09:27 | 27.91054 | 107.95351 | 38029 ft | 451 kts | 250° |
| 2026-05-05 09:27 | 27.88177 | 107.89047 | 38034 ft | 452 kts | 251° |
| 2026-05-05 09:28 | 27.85284 | 107.82714 | 38044 ft | 451 kts | 250° |
| 2026-05-05 09:28 | 27.82415 | 107.76442 | 38061 ft | 452 kts | 251° |
| 2026-05-05 09:29 | 27.79592 | 107.70118 | 38072 ft | 451 kts | 251° |
| 2026-05-05 09:29 | 27.76780 | 107.63791 | 38073 ft | 451 kts | 251° |
| 2026-05-05 09:30 | 27.73962 | 107.57478 | 38071 ft | 452 kts | 251° |
| 2026-05-05 09:30 | 27.71121 | 107.51131 | 38064 ft | 451 kts | 251° |
| 2026-05-05 09:31 | 27.68300 | 107.44840 | 38064 ft | 451 kts | 251° |
| 2026-05-05 09:31 | 27.65449 | 107.38483 | 38069 ft | 456 kts | 251° |
| 2026-05-05 09:32 | 27.62583 | 107.32115 | 38072 ft | 457 kts | 250° |
| 2026-05-05 09:32 | 27.59705 | 107.25736 | 38073 ft | 457 kts | 251° |
| 2026-05-05 09:33 | 27.56805 | 107.19303 | 38080 ft | 458 kts | 251° |
| 2026-05-05 09:33 | 27.53918 | 107.12904 | 38087 ft | 460 kts | 251° |
| 2026-05-05 09:34 | 27.51033 | 107.06518 | 38092 ft | 459 kts | 251° |
| 2026-05-05 09:34 | 27.48131 | 107.00109 | 38094 ft | 460 kts | 251° |
| 2026-05-05 09:35 | 27.45248 | 106.93684 | 38089 ft | 460 kts | 251° |
| 2026-05-05 09:35 | 27.40952 | 106.84061 | 38084 ft | 459 kts | 251° |
| 2026-05-05 09:36 | 27.38076 | 106.77638 | 38079 ft | 460 kts | 251° |
| 2026-05-05 09:36 | 27.35193 | 106.71223 | 38073 ft | 460 kts | 251° |
| 2026-05-05 09:37 | 27.32306 | 106.64834 | 38072 ft | 459 kts | 251° |
| 2026-05-05 09:37 | 27.29395 | 106.58400 | 38077 ft | 460 kts | 251° |
| 2026-05-05 09:38 | 27.26485 | 106.51977 | 38087 ft | 460 kts | 250° |
| 2026-05-05 09:38 | 27.23580 | 106.45577 | 38093 ft | 460 kts | 251° |
| 2026-05-05 09:39 | 27.20668 | 106.39172 | 38104 ft | 461 kts | 251° |
| 2026-05-05 09:39 | 27.17761 | 106.32777 | 38119 ft | 461 kts | 250° |
| 2026-05-05 09:40 | 27.14838 | 106.26354 | 38124 ft | 461 kts | 250° |
| 2026-05-05 09:40 | 27.11914 | 106.19939 | 38130 ft | 461 kts | 250° |
| 2026-05-05 09:41 | 27.08997 | 106.13554 | 38130 ft | 461 kts | 250° |
| 2026-05-05 09:41 | 27.06255 | 106.07117 | 38122 ft | 456 kts | 254° |
| 2026-05-05 09:42 | 27.04066 | 106.00503 | 38126 ft | 451 kts | 259° |
| 2026-05-05 09:42 | 27.02441 | 105.93756 | 38129 ft | 447 kts | 264° |
| 2026-05-05 09:43 | 27.01132 | 105.86932 | 38132 ft | 447 kts | 264° |
| 2026-05-05 09:43 | 26.99843 | 105.80182 | 38135 ft | 448 kts | 264° |
| 2026-05-05 09:44 | 26.98532 | 105.73324 | 38151 ft | 447 kts | 264° |
| 2026-05-05 09:44 | 26.97234 | 105.66548 | 38162 ft | 447 kts | 264° |
| 2026-05-05 09:45 | 26.95929 | 105.59750 | 38169 ft | 447 kts | 264° |
| 2026-05-05 09:45 | 26.94612 | 105.52917 | 38175 ft | 448 kts | 264° |
| 2026-05-05 09:46 | 26.93294 | 105.46089 | 38182 ft | 448 kts | 264° |
| 2026-05-05 09:46 | 26.91984 | 105.39314 | 38183 ft | 447 kts | 264° |
| 2026-05-05 09:47 | 26.90662 | 105.32510 | 38190 ft | 449 kts | 263° |
| 2026-05-05 09:47 | 26.89336 | 105.25687 | 38189 ft | 448 kts | 263° |
| 2026-05-05 09:48 | 26.88003 | 105.18867 | 38197 ft | 449 kts | 263° |
| 2026-05-05 09:48 | 26.86666 | 105.12032 | 38204 ft | 449 kts | 263° |
| 2026-05-05 09:49 | 26.85329 | 105.05224 | 38206 ft | 449 kts | 263° |
| 2026-05-05 09:49 | 26.83980 | 104.98377 | 38212 ft | 449 kts | 263° |
| 2026-05-05 09:50 | 26.82634 | 104.91563 | 38227 ft | 449 kts | 263° |
| 2026-05-05 09:50 | 26.81282 | 104.84734 | 38241 ft | 450 kts | 263° |
| 2026-05-05 09:51 | 26.79920 | 104.77923 | 38249 ft | 449 kts | 263° |
| 2026-05-05 09:51 | 26.78513 | 104.71134 | 38258 ft | 451 kts | 259° |
| 2026-05-05 09:52 | 26.76166 | 104.64592 | 37845 ft | 455 kts | 248° |
| 2026-05-05 09:52 | 26.74541 | 104.61535 | 37558 ft | 451 kts | 243° |
| 2026-05-05 09:52 | 26.72680 | 104.58730 | 37282 ft | 447 kts | 238° |
| 2026-05-05 09:53 | 26.70604 | 104.56171 | 36984 ft | 445 kts | 232° |
| 2026-05-05 09:53 | 26.68293 | 104.53829 | 36655 ft | 446 kts | 228° |
| 2026-05-05 09:53 | 26.65898 | 104.51611 | 36249 ft | 448 kts | 227° |
| 2026-05-05 09:53 | 26.63499 | 104.49426 | 35797 ft | 449 kts | 226° |
| 2026-05-05 09:54 | 26.61071 | 104.47224 | 35251 ft | 450 kts | 226° |
| 2026-05-05 09:54 | 26.58622 | 104.45003 | 34647 ft | 450 kts | 226° |
| 2026-05-05 09:54 | 26.56198 | 104.42808 | 34080 ft | 449 kts | 226° |
| 2026-05-05 09:54 | 26.53777 | 104.40614 | 33449 ft | 449 kts | 226° |
| 2026-05-05 09:55 | 26.51363 | 104.38426 | 32821 ft | 449 kts | 225° |
| 2026-05-05 09:55 | 26.48935 | 104.36230 | 32250 ft | 449 kts | 225° |
| 2026-05-05 09:55 | 26.46498 | 104.34025 | 31680 ft | 449 kts | 225° |
| 2026-05-05 09:55 | 26.44062 | 104.31820 | 31058 ft | 450 kts | 225° |
| 2026-05-05 09:56 | 26.41636 | 104.29624 | 30514 ft | 450 kts | 224° |
| 2026-05-05 09:56 | 26.39213 | 104.27438 | 30118 ft | 445 kts | 224° |
| 2026-05-05 09:56 | 26.36799 | 104.25261 | 29748 ft | 441 kts | 224° |
| 2026-05-05 09:56 | 26.34434 | 104.23131 | 29364 ft | 436 kts | 224° |
| 2026-05-05 09:57 | 26.32090 | 104.21016 | 28989 ft | 432 kts | 224° |
| 2026-05-05 09:57 | 26.29757 | 104.18914 | 28607 ft | 428 kts | 224° |
| 2026-05-05 09:57 | 26.27454 | 104.16838 | 28216 ft | 425 kts | 224° |
| 2026-05-05 09:57 | 26.25163 | 104.14774 | 27828 ft | 421 kts | 224° |
| 2026-05-05 09:58 | 26.22897 | 104.12734 | 27437 ft | 418 kts | 224° |
| 2026-05-05 09:58 | 26.20653 | 104.10712 | 27071 ft | 414 kts | 224° |
| 2026-05-05 09:58 | 26.18423 | 104.08706 | 26691 ft | 411 kts | 224° |
| 2026-05-05 09:58 | 26.16213 | 104.06721 | 26321 ft | 407 kts | 224° |
| 2026-05-05 09:59 | 26.14018 | 104.04748 | 25934 ft | 405 kts | 223° |
| 2026-05-05 09:59 | 26.11835 | 104.02786 | 25550 ft | 402 kts | 224° |
| 2026-05-05 09:59 | 26.09650 | 104.00824 | 25157 ft | 399 kts | 223° |
| 2026-05-05 09:59 | 26.07492 | 103.98887 | 24771 ft | 396 kts | 223° |
| 2026-05-05 10:00 | 26.05351 | 103.96968 | 24388 ft | 394 kts | 223° |
| 2026-05-05 10:00 | 26.03236 | 103.95073 | 23997 ft | 392 kts | 223° |
| 2026-05-05 10:00 | 26.01125 | 103.93182 | 23628 ft | 389 kts | 223° |
| 2026-05-05 10:00 | 25.99076 | 103.91233 | 23233 ft | 385 kts | 227° |
| 2026-05-05 10:01 | 25.97207 | 103.89086 | 22842 ft | 381 kts | 232° |
| 2026-05-05 10:01 | 25.95568 | 103.86804 | 22459 ft | 377 kts | 237° |
| 2026-05-05 10:01 | 25.94076 | 103.84426 | 22077 ft | 375 kts | 238° |
| 2026-05-05 10:01 | 25.92610 | 103.82049 | 21696 ft | 373 kts | 238° |
| 2026-05-05 10:02 | 25.91139 | 103.79661 | 21316 ft | 371 kts | 238° |
| 2026-05-05 10:02 | 25.89692 | 103.77322 | 20941 ft | 369 kts | 237° |
| 2026-05-05 10:02 | 25.88075 | 103.75118 | 20565 ft | 369 kts | 230° |
| 2026-05-05 10:02 | 25.86209 | 103.73118 | 20186 ft | 370 kts | 224° |
| 2026-05-05 10:03 | 25.84198 | 103.71391 | 19823 ft | 369 kts | 220° |
| 2026-05-05 10:03 | 25.82097 | 103.69711 | 19457 ft | 367 kts | 219° |
| 2026-05-05 10:03 | 25.80025 | 103.68070 | 19083 ft | 366 kts | 219° |
| 2026-05-05 10:03 | 25.77969 | 103.66443 | 18714 ft | 364 kts | 219° |
| 2026-05-05 10:04 | 25.75905 | 103.64806 | 18333 ft | 362 kts | 219° |
| 2026-05-05 10:04 | 25.73868 | 103.63187 | 17951 ft | 361 kts | 219° |
| 2026-05-05 10:04 | 25.71818 | 103.61560 | 17582 ft | 359 kts | 219° |
| 2026-05-05 10:04 | 25.69795 | 103.59959 | 17209 ft | 357 kts | 219° |
| 2026-05-05 10:05 | 25.67775 | 103.58362 | 16833 ft | 356 kts | 219° |
| 2026-05-05 10:05 | 25.65731 | 103.56746 | 16445 ft | 355 kts | 219° |
| 2026-05-05 10:05 | 25.63741 | 103.55174 | 16070 ft | 354 kts | 219° |
| 2026-05-05 10:05 | 25.61727 | 103.53585 | 15688 ft | 352 kts | 219° |
| 2026-05-05 10:06 | 25.59748 | 103.52023 | 15307 ft | 351 kts | 219° |
| 2026-05-05 10:06 | 25.57749 | 103.50443 | 14921 ft | 350 kts | 219° |
| 2026-05-05 10:06 | 25.55778 | 103.48888 | 14538 ft | 349 kts | 219° |
| 2026-05-05 10:06 | 25.53786 | 103.47317 | 14147 ft | 348 kts | 219° |
| 2026-05-05 10:07 | 25.51825 | 103.45771 | 13757 ft | 347 kts | 219° |
| 2026-05-05 10:07 | 25.49843 | 103.44211 | 13368 ft | 346 kts | 219° |
| 2026-05-05 10:07 | 25.47890 | 103.42672 | 12991 ft | 344 kts | 219° |
| 2026-05-05 10:07 | 25.45957 | 103.41153 | 12814 ft | 332 kts | 219° |
| 2026-05-05 10:08 | 25.44154 | 103.39738 | 12719 ft | 306 kts | 219° |
| 2026-05-05 10:08 | 25.42474 | 103.38424 | 12691 ft | 280 kts | 219° |
| 2026-05-05 10:08 | 25.40950 | 103.37229 | 12664 ft | 265 kts | 220° |
| 2026-05-05 10:08 | 25.39442 | 103.36038 | 12631 ft | 265 kts | 220° |
| 2026-05-05 10:09 | 25.37927 | 103.34843 | 12599 ft | 265 kts | 219° |
| 2026-05-05 10:09 | 25.36430 | 103.33665 | 12569 ft | 265 kts | 219° |
| 2026-05-05 10:09 | 25.34928 | 103.32482 | 12545 ft | 263 kts | 219° |
| 2026-05-05 10:09 | 25.33521 | 103.31247 | 12486 ft | 250 kts | 235° |
| 2026-05-05 10:10 | 25.32847 | 103.29582 | 12423 ft | 235 kts | 264° |
| 2026-05-05 10:10 | 25.33005 | 103.27815 | 12211 ft | 237 kts | 290° |
| 2026-05-05 10:10 | 25.33896 | 103.26263 | 11935 ft | 241 kts | 305° |
| 2026-05-05 10:10 | 25.34944 | 103.24814 | 11672 ft | 241 kts | 305° |
| 2026-05-05 10:11 | 25.35977 | 103.23366 | 11418 ft | 240 kts | 305° |
| 2026-05-05 10:11 | 25.36994 | 103.21907 | 11164 ft | 237 kts | 297° |
| 2026-05-05 10:11 | 25.37460 | 103.20217 | 10884 ft | 232 kts | 268° |
| 2026-05-05 10:11 | 25.37055 | 103.18523 | 10641 ft | 231 kts | 245° |
| 2026-05-05 10:12 | 25.36167 | 103.17026 | 10373 ft | 232 kts | 230° |
| 2026-05-05 10:12 | 25.35025 | 103.15794 | 10205 ft | 229 kts | 223° |
| 2026-05-05 10:12 | 25.33822 | 103.14687 | 10053 ft | 222 kts | 221° |
| 2026-05-05 10:12 | 25.32643 | 103.13652 | 9993 ft | 209 kts | 221° |
| 2026-05-05 10:13 | 25.31530 | 103.12687 | 9970 ft | 193 kts | 221° |
| 2026-05-05 10:13 | 25.30520 | 103.11813 | 9954 ft | 178 kts | 221° |
| 2026-05-05 10:13 | 25.29574 | 103.10994 | 9952 ft | 163 kts | 222° |
| 2026-05-05 10:13 | 25.28698 | 103.10234 | 9956 ft | 160 kts | 222° |
| 2026-05-05 10:14 | 25.27823 | 103.09472 | 9967 ft | 160 kts | 221° |
| 2026-05-05 10:14 | 25.26947 | 103.08710 | 9970 ft | 160 kts | 222° |
| 2026-05-05 10:14 | 25.26072 | 103.07949 | 9969 ft | 160 kts | 222° |
| 2026-05-05 10:14 | 25.25190 | 103.07182 | 9967 ft | 160 kts | 222° |
| 2026-05-05 10:15 | 25.24316 | 103.06423 | 9805 ft | 159 kts | 222° |
| 2026-05-05 10:15 | 25.23449 | 103.05671 | 9605 ft | 158 kts | 222° |
| 2026-05-05 10:15 | 25.22592 | 103.04927 | 9413 ft | 156 kts | 222° |
| 2026-05-05 10:15 | 25.21754 | 103.04199 | 9210 ft | 151 kts | 221° |
| 2026-05-05 10:16 | 25.20923 | 103.03477 | 9025 ft | 150 kts | 221° |
| 2026-05-05 10:16 | 25.20109 | 103.02769 | 8844 ft | 149 kts | 221° |
| 2026-05-05 10:16 | 25.19292 | 103.02057 | 8672 ft | 149 kts | 221° |
| 2026-05-05 10:16 | 25.18477 | 103.01349 | 8487 ft | 149 kts | 221° |
| 2026-05-05 10:17 | 25.17672 | 103.00648 | 8302 ft | 148 kts | 221° |
| 2026-05-05 10:17 | 25.16857 | 102.99940 | 8119 ft | 148 kts | 221° |
| 2026-05-05 10:17 | 25.16046 | 102.99235 | 7935 ft | 147 kts | 221° |
| 2026-05-05 10:17 | 25.15238 | 102.98531 | 7738 ft | 147 kts | 221° |
| 2026-05-05 10:18 | 25.14435 | 102.97832 | 7563 ft | 147 kts | 221° |
| 2026-05-05 10:18 | 25.13630 | 102.97133 | 7378 ft | 146 kts | 220° |
| 2026-05-05 10:18 | 25.12833 | 102.96440 | 7198 ft | 146 kts | 220° |
| 2026-05-05 10:18 | 25.12036 | 102.95747 | 7014 ft | 145 kts | 221° |
| 2026-05-05 10:19 | 25.11272 | 102.95082 | 6923 ft | 130 kts | 218° |
| 2026-05-05 10:19 | 25.10679 | 102.94563 | 6923 ft | 83 kts | 218° |
| 2026-05-05 10:19 | 25.10367 | 102.94288 | 6923 ft | 30 kts | 215° |
| 2026-05-05 10:19 | 25.10221 | 102.94164 | 6923 ft | 25 kts | 216° |
| 2026-05-05 10:20 | 25.10095 | 102.94041 | 6923 ft | 22 kts | 228° |
| 2026-05-05 10:20 | 25.10020 | 102.93901 | 6923 ft | 19 kts | 243° |
| 2026-05-05 10:20 | 25.09966 | 102.93771 | 6923 ft | 18 kts | 246° |
| 2026-05-05 10:20 | 25.09960 | 102.93662 | 6923 ft | 10 kts | 316° |
| 2026-05-05 10:21 | 25.10017 | 102.93630 | 6923 ft | 8 kts | 318° |
| 2026-05-05 10:21 | 25.10052 | 102.93580 | 6923 ft | 8 kts | 308° |
| 2026-05-05 10:21 | 25.10088 | 102.93528 | 6923 ft | 8 kts | 306° |
| 2026-05-05 10:21 | 25.10115 | 102.93466 | 6923 ft | 9 kts | 287° |
| 2026-05-05 10:22 | 25.10131 | 102.93398 | 6923 ft | 9 kts | 284° |
| 2026-05-05 10:22 | 25.10147 | 102.93325 | 6923 ft | 9 kts | 282° |
| 2026-05-05 10:22 | 25.10161 | 102.93250 | 6923 ft | 9 kts | 281° |
| 2026-05-05 10:22 | 25.10186 | 102.93209 | 6923 ft | 5 kts | 347° |
| 2026-05-05 10:23 | 25.10221 | 102.93212 | 6923 ft | 3 kts | 7° |
| 2026-05-05 10:23 | 25.10233 | 102.93214 | 6923 ft | 0 kts | 7° |